Time;durP1;ratioP1;P1;durP2;ratioP2;P2;SDS_P1;SDS_P2;PMS_P1;PMS_P2;Temp;Humidity;BMP_temperature;BMP_pressure;BME280_temperature;BME280_humidity;BME280_pressure;Samples;Min_cycle;Max_cycle;Signal;HPM_P1;HPM_P2
2022/12/16 00:01:23;;;;;;;46.87;24.83;;;-4.10;99.90;;;;;;5043476;28;20619;-70
2022/12/16 00:03:54;;;;;;;45.70;24.87;;;-4.10;99.90;;;;;;5045236;28;20211;-69
2022/12/16 00:06:20;;;;;;;47.20;24.70;;;-4.10;99.90;;;;;;5040122;28;20624;-69
2022/12/16 00:08:46;;;;;;;48.93;25.90;;;-4.10;99.90;;;;;;5045066;28;20202;-69
2022/12/16 00:11:12;;;;;;;45.73;24.87;;;-4.10;99.90;;;;;;5044854;28;20221;-69
2022/12/16 00:13:41;;;;;;;48.03;26.60;;;-4.10;99.90;;;;;;5042176;28;20581;-69
2022/12/16 00:16:12;;;;;;;47.17;24.87;;;-4.10;99.90;;;;;;5043669;28;20244;-70
2022/12/16 00:18:38;;;;;;;43.53;26.37;;;-4.10;99.90;;;;;;5045946;28;20249;-69
2022/12/16 00:21:04;;;;;;;52.17;27.90;;;-4.00;99.90;;;;;;5039386;28;20183;-69
2022/12/16 00:23:30;;;;;;;48.37;26.70;;;-4.00;99.90;;;;;;5063070;28;20206;-69
2022/12/16 00:25:56;;;;;;;48.60;26.13;;;-4.00;99.90;;;;;;5045361;28;20213;-69
2022/12/16 00:28:22;;;;;;;45.07;24.83;;;-4.00;99.90;;;;;;5043481;28;20215;-69
2022/12/16 00:30:50;;;;;;;45.43;26.13;;;-4.00;99.90;;;;;;5045873;28;20209;-69
2022/12/16 00:33:16;;;;;;;45.87;25.20;;;-4.10;99.90;;;;;;5050462;28;20182;-69
2022/12/16 00:35:41;;;;;;;46.03;25.00;;;-4.10;99.90;;;;;;5044679;28;20206;-68
2022/12/16 00:38:07;;;;;;;50.10;26.37;;;-4.10;99.90;;;;;;5045977;28;20217;-69
2022/12/16 00:40:33;;;;;;;50.20;26.17;;;-4.10;99.90;;;;;;5057122;28;20225;-69
2022/12/16 00:42:59;;;;;;;58.77;29.90;;;-4.10;99.90;;;;;;5045121;28;20219;-69
2022/12/16 00:45:25;;;;;;;45.10;26.10;;;-4.00;99.90;;;;;;5045669;28;20179;-69
2022/12/16 00:47:50;;;;;;;52.77;29.00;;;-4.00;99.90;;;;;;5044597;28;20195;-69
2022/12/16 00:50:17;;;;;;;55.83;28.93;;;-4.00;99.90;;;;;;5044944;28;20308;-71
2022/12/16 00:52:43;;;;;;;52.90;27.83;;;-4.00;99.90;;;;;;5049272;28;20221;-69
2022/12/16 00:55:09;;;;;;;49.43;26.83;;;-4.00;99.90;;;;;;5042502;28;20214;-71
2022/12/16 00:57:34;;;;;;;55.77;28.23;;;-4.10;99.90;;;;;;5047579;28;20226;-69
2022/12/16 01:00:03;;;;;;;53.23;28.67;;;-4.10;99.90;;;;;;5052770;28;20280;-69
2022/12/16 01:02:30;;;;;;;57.77;27.20;;;-4.10;99.90;;;;;;5047035;28;20210;-69
2022/12/16 01:04:55;;;;;;;50.07;29.70;;;-4.10;99.90;;;;;;5047447;28;20206;-69
2022/12/16 01:07:21;;;;;;;52.87;28.73;;;-4.20;99.90;;;;;;5044783;28;20762;-70
2022/12/16 01:09:47;;;;;;;54.70;30.80;;;-4.20;99.90;;;;;;5047782;28;20214;-69
2022/12/16 01:12:12;;;;;;;56.37;30.80;;;-4.20;99.90;;;;;;5049217;28;20194;-71
2022/12/16 01:14:38;;;;;;;53.47;28.03;;;-4.20;99.90;;;;;;5047196;28;20602;-69
2022/12/16 01:17:04;;;;;;;52.57;28.60;;;-4.20;99.90;;;;;;5056806;28;20224;-69
2022/12/16 01:19:29;;;;;;;56.77;29.90;;;-4.20;99.90;;;;;;5048347;28;20248;-69
2022/12/16 01:21:55;;;;;;;52.30;28.87;;;-4.30;99.90;;;;;;5045803;28;20213;-69
2022/12/16 01:24:21;;;;;;;48.90;28.30;;;-4.30;99.90;;;;;;5049854;28;20198;-69
2022/12/16 01:26:46;;;;;;;52.30;28.33;;;-4.30;99.90;;;;;;5049650;28;20175;-72
2022/12/16 01:29:12;;;;;;;52.97;28.43;;;-4.30;99.90;;;;;;5044267;28;20226;-71
2022/12/16 01:31:37;;;;;;;48.83;28.40;;;-4.30;99.90;;;;;;5050683;28;20229;-70
2022/12/16 01:34:03;;;;;;;45.07;26.50;;;-4.30;99.90;;;;;;5045445;28;20219;-67
2022/12/16 01:36:29;;;;;;;52.83;26.73;;;-4.30;99.90;;;;;;5060552;28;20337;-69
2022/12/16 01:38:54;;;;;;;52.33;27.90;;;-4.30;99.90;;;;;;5051166;28;20270;-69
2022/12/16 01:41:20;;;;;;;54.93;27.87;;;-4.30;99.90;;;;;;5043258;28;20329;-69
2022/12/16 01:43:46;;;;;;;51.67;27.10;;;-4.40;99.90;;;;;;5048960;28;20241;-69
2022/12/16 01:46:12;;;;;;;49.93;27.70;;;-4.30;99.90;;;;;;5059380;28;20221;-70
2022/12/16 01:48:55;;;;;;;48.87;26.57;;;-4.40;99.90;;;;;;5046422;28;20221;-71
2022/12/16 01:51:27;;;;;;;53.17;26.50;;;-4.40;99.90;;;;;;5047411;28;20185;-71
2022/12/16 01:54:02;;;;;;;44.90;25.27;;;-4.40;99.90;;;;;;5042193;28;20221;-69
2022/12/16 01:56:30;;;;;;;44.60;25.33;;;-4.40;99.90;;;;;;5047131;28;20359;-70
2022/12/16 01:58:57;;;;;;;49.87;26.33;;;-4.40;99.90;;;;;;5045879;28;20228;-70
2022/12/16 02:01:22;;;;;;;44.80;26.10;;;-4.40;99.90;;;;;;5042458;28;20228;-70
2022/12/16 02:03:50;;;;;;;50.90;28.07;;;-4.40;99.90;;;;;;5047281;28;20214;-70
2022/12/16 02:06:15;;;;;;;54.90;26.87;;;-4.40;99.90;;;;;;5044563;28;20187;-70
2022/12/16 02:08:41;;;;;;;46.73;26.37;;;-4.50;99.90;;;;;;5046716;28;20410;-70
2022/12/16 02:11:18;;;;;;;49.77;26.60;;;-4.40;99.90;;;;;;5047311;28;20243;-70
2022/12/16 02:13:44;;;;;;;52.03;26.63;;;-4.50;99.90;;;;;;5047733;28;20224;-70
2022/12/16 02:16:19;;;;;;;49.70;25.60;;;-4.50;99.90;;;;;;5049827;28;20311;-70
2022/12/16 02:18:54;;;;;;;50.87;26.67;;;-4.50;99.90;;;;;;5051437;28;20937;-70
2022/12/16 02:21:55;;;;;;;42.33;24.17;;;-4.50;99.90;;;;;;5045015;28;20177;-71
2022/12/16 02:24:36;;;;;;;46.13;25.17;;;-4.50;99.90;;;;;;5047668;28;20280;-70
2022/12/16 02:27:10;;;;;;;44.23;25.07;;;-4.50;99.90;;;;;;5044322;28;20269;-71
2022/12/16 02:29:54;;;;;;;43.87;24.40;;;-4.60;99.90;;;;;;5044521;28;20211;-70
2022/12/16 02:32:25;;;;;;;43.37;23.70;;;-4.60;99.90;;;;;;5049565;28;20338;-71
2022/12/16 02:35:22;;;;;;;48.33;25.20;;;-4.50;99.90;;;;;;5040434;28;20215;-71
2022/12/16 02:38:05;;;;;;;44.87;24.50;;;-4.50;99.90;;;;;;5023124;28;20307;-71
2022/12/16 02:40:49;;;;;;;46.57;23.97;;;-4.60;99.90;;;;;;5044742;28;20209;-67
2022/12/16 02:43:18;;;;;;;52.03;25.43;;;-4.60;99.90;;;;;;5045591;28;20206;-69
2022/12/16 02:45:45;;;;;;;46.33;24.77;;;-4.60;99.90;;;;;;5048757;28;20207;-70
2022/12/16 02:48:11;;;;;;;44.00;23.80;;;-4.60;99.90;;;;;;5054860;28;20266;-68
2022/12/16 02:50:48;;;;;;;51.73;25.00;;;-4.60;99.90;;;;;;5048418;28;20720;-69
2022/12/16 02:53:13;;;;;;;49.63;25.93;;;-4.60;99.90;;;;;;5054135;28;20586;-68
2022/12/16 02:55:53;;;;;;;50.97;26.03;;;-4.60;99.90;;;;;;5060309;28;20216;-69
2022/12/16 02:58:49;;;;;;;45.50;24.87;;;-4.60;99.90;;;;;;5049741;28;20760;-69
2022/12/16 03:01:40;;;;;;;47.13;25.33;;;-4.60;99.90;;;;;;5042869;28;20333;-69
2022/12/16 03:04:11;;;;;;;45.77;25.17;;;-4.60;99.90;;;;;;5048436;28;20302;-68
2022/12/16 03:06:41;;;;;;;44.93;24.63;;;-4.60;99.90;;;;;;5048014;28;20631;-70
2022/12/16 03:09:11;;;;;;;44.87;25.00;;;-4.60;99.90;;;;;;5041258;28;20193;-69
2022/12/16 03:11:41;;;;;;;52.47;25.77;;;-4.60;99.90;;;;;;5046451;28;20387;-69
2022/12/16 03:14:12;;;;;;;49.33;25.10;;;-4.70;99.90;;;;;;5048691;28;20812;-69
2022/12/16 03:16:38;;;;;;;45.43;24.53;;;-4.60;99.90;;;;;;5045602;28;20213;-68
2022/12/16 03:19:08;;;;;;;43.57;24.57;;;-4.70;99.90;;;;;;5047509;28;20219;-68
2022/12/16 03:21:42;;;;;;;48.03;25.63;;;-4.70;99.90;;;;;;5045120;28;20208;-70
2022/12/16 03:24:12;;;;;;;50.53;25.07;;;-4.70;99.90;;;;;;5045169;28;20548;-68
2022/12/16 03:27:07;;;;;;;49.57;25.73;;;-4.80;99.90;;;;;;5049731;28;20197;-69
2022/12/16 03:29:45;;;;;;;50.00;27.37;;;-4.80;99.90;;;;;;5039592;28;20217;-69
2022/12/16 03:32:30;;;;;;;45.70;24.47;;;-4.70;99.90;;;;;;5048001;28;20220;-69
2022/12/16 03:35:01;;;;;;;47.93;25.20;;;-4.80;99.90;;;;;;5039601;28;20263;-69
2022/12/16 03:37:32;;;;;;;48.60;24.17;;;-4.80;99.90;;;;;;5047078;28;20217;-68
2022/12/16 03:40:02;;;;;;;49.30;24.83;;;-4.70;99.90;;;;;;5042115;28;20208;-68
2022/12/16 03:42:28;;;;;;;46.03;24.17;;;-4.80;99.90;;;;;;5063831;28;20181;-69
2022/12/16 03:44:53;;;;;;;49.10;24.93;;;-4.80;99.90;;;;;;5045922;28;20541;-67
2022/12/16 03:47:19;;;;;;;47.90;24.40;;;-4.80;99.90;;;;;;5050234;28;20292;-69
2022/12/16 03:49:45;;;;;;;49.33;24.90;;;-4.80;99.90;;;;;;5040545;28;20205;-68
2022/12/16 03:52:10;;;;;;;45.63;25.47;;;-4.80;99.90;;;;;;5042038;28;20699;-70
2022/12/16 03:54:36;;;;;;;42.77;23.27;;;-4.80;99.90;;;;;;5041217;28;20231;-70
2022/12/16 03:57:02;;;;;;;53.90;27.83;;;-4.80;99.90;;;;;;5041415;28;20215;-68
2022/12/16 03:59:28;;;;;;;45.80;24.50;;;-4.80;99.90;;;;;;5036828;28;20218;-69
2022/12/16 04:01:54;;;;;;;46.90;25.83;;;-4.80;99.90;;;;;;5045824;28;20202;-70
2022/12/16 04:04:19;;;;;;;51.00;26.83;;;-4.90;99.90;;;;;;5038246;28;20207;-69
2022/12/16 04:07:18;;;;;;;44.03;24.80;;;-4.80;99.90;;;;;;5039489;28;20258;-69
2022/12/16 04:09:31;;;;;;;44.50;24.43;;;-4.80;99.90;;;;;;5045335;28;20218;-69
2022/12/16 04:25:47;;;;;;;46.47;26.03;;;-4.70;99.90;;;;;;5043368;28;20212;-69
2022/12/16 04:28:12;;;;;;;48.47;26.33;;;-4.70;99.90;;;;;;5041157;28;20621;-70
2022/12/16 04:30:38;;;;;;;50.70;26.53;;;-4.70;99.90;;;;;;5037588;28;20213;-69
